Wampsville, New York
Current Conditions -  °F | °C
As of 10:53 AM on Wednesday 26 Nov 2014 (Local Time) from KRME Reporting Station
Overcast Overcast  
Wind Chill: 31°   Ceiling: 8000
Heat Index: 35°   Visibility: 10mi
Dew Point: 24°   Wind: 5mph
Humidity: 64%   Direction: 20°NNE
Pressure: 30.17"   Gusts: NA
Location:  43.08°N, 75.71°W
Report Text: KRME 261553Z 02004KT 10SM SCT032 OVC080 02/M04 A3017 RMK AO2 SLP219 T00171044
Loading
Personal Weather Stations






























Interactive Weather Map New forecast layout! Learn more

10-Day Weather Forecast

Advertisements
Track Severe Weather on mobile